Time;durP1;ratioP1;P1;durP2;ratioP2;P2;SDS_P1;SDS_P2;PMS_P1;PMS_P2;Temp;Humidity;BMP_temperature;BMP_pressure;BME280_temperature;BME280_humidity;BME280_pressure;Samples;Min_cycle;Max_cycle;Signal;HPM_P1;HPM_P2
2023/12/03 00:01:57;;;;;;;82.97;28.13;;;;;;;-0.12;100.00;101628.66;4939866;29;20414;-89
2023/12/03 00:04:22;;;;;;;71.57;26.77;;;;;;;-0.07;100.00;101629.44;4917158;28;20026;-83
2023/12/03 00:06:48;;;;;;;75.47;28.15;;;;;;;-0.06;100.00;101628.53;4923539;29;20035;-83
2023/12/03 00:09:13;;;;;;;75.80;27.38;;;;;;;0.01;100.00;101623.00;4931033;28;20444;-84
2023/12/03 00:11:39;;;;;;;76.20;27.60;;;;;;;0.06;100.00;101630.03;4905179;28;20032;-84
2023/12/03 00:14:04;;;;;;;70.30;26.25;;;;;;;0.08;100.00;101625.53;4908931;29;20566;-84
2023/12/03 00:16:31;;;;;;;74.80;25.83;;;;;;;0.08;100.00;101630.91;4956392;28;20105;-84
2023/12/03 00:18:56;;;;;;;72.82;26.83;;;;;;;0.09;100.00;101629.97;4950663;28;20066;-84
2023/12/03 00:21:22;;;;;;;67.85;25.27;;;;;;;0.15;100.00;101627.16;4908632;28;20127;-83
2023/12/03 00:23:47;;;;;;;71.65;25.83;;;;;;;0.19;100.00;101622.56;4910353;28;20083;-84
2023/12/03 00:26:12;;;;;;;73.05;24.80;;;;;;;0.18;100.00;101610.94;4909425;28;20035;-82
2023/12/03 00:28:38;;;;;;;70.45;25.58;;;;;;;0.19;100.00;101625.28;4939773;28;20035;-84
2023/12/03 00:31:04;;;;;;;64.15;25.10;;;;;;;0.26;100.00;101621.50;4902950;28;20042;-84
2023/12/03 00:33:29;;;;;;;64.72;25.17;;;;;;;0.26;100.00;101615.22;4943271;28;20122;-84
2023/12/03 00:35:55;;;;;;;61.17;23.60;;;;;;;0.33;100.00;101620.44;4909239;29;20051;-84
2023/12/03 00:38:20;;;;;;;66.10;25.60;;;;;;;0.35;100.00;101623.09;4937500;28;20457;-83
2023/12/03 00:40:46;;;;;;;65.45;25.45;;;;;;;0.35;100.00;101623.97;4897687;29;20548;-84
2023/12/03 00:43:11;;;;;;;58.20;23.67;;;;;;;0.29;100.00;101607.97;4906211;29;20982;-83
2023/12/03 00:45:37;;;;;;;59.85;24.25;;;;;;;0.39;100.00;101629.28;4930028;29;20031;-84
2023/12/03 00:48:03;;;;;;;62.67;24.73;;;;;;;0.42;100.00;101630.09;4898900;29;20032;-84
2023/12/03 00:50:28;;;;;;;59.20;24.45;;;;;;;0.46;100.00;101631.81;4926740;29;20047;-84
2023/12/03 00:52:53;;;;;;;60.13;24.25;;;;;;;0.42;100.00;101630.09;4938925;28;20035;-84
2023/12/03 00:55:19;;;;;;;56.72;24.33;;;;;;;0.48;100.00;101631.78;4914927;29;20086;-84
2023/12/03 00:57:46;;;;;;;57.58;23.27;;;;;;;0.45;100.00;101635.41;4925652;29;20031;-85
2023/12/03 01:00:12;;;;;;;50.00;22.27;;;;;;;0.53;100.00;101636.13;4913440;29;20176;-84
2023/12/03 01:02:37;;;;;;;55.00;23.30;;;;;;;0.50;100.00;101635.31;4929692;29;20115;-84
2023/12/03 01:05:04;;;;;;;63.45;23.52;;;;;;;0.53;100.00;101643.31;4928630;29;20163;-84
2023/12/03 01:07:29;;;;;;;61.63;23.42;;;;;;;0.54;100.00;101643.28;4912625;29;20039;-85
2023/12/03 01:09:55;;;;;;;54.40;22.45;;;;;;;0.53;100.00;101638.81;4910296;29;20512;-83
2023/12/03 01:12:20;;;;;;;62.33;25.08;;;;;;;0.55;100.00;101642.34;4924604;29;20039;-84
2023/12/03 01:14:46;;;;;;;59.95;24.45;;;;;;;0.58;100.00;101641.38;4901633;29;20067;-90
2023/12/03 01:17:11;;;;;;;57.50;22.75;;;;;;;0.57;100.00;101645.00;4904111;29;20044;-90
2023/12/03 01:19:36;;;;;;;63.70;23.95;;;;;;;0.50;100.00;101641.56;4915084;29;20126;-90
2023/12/03 01:22:02;;;;;;;56.70;23.42;;;;;;;0.44;100.00;101646.22;4912368;29;20036;-90
2023/12/03 01:24:30;;;;;;;70.53;25.23;;;;;;;0.45;100.00;101645.31;4937497;29;20055;-90
2023/12/03 01:26:56;;;;;;;60.78;23.48;;;;;;;0.47;100.00;101654.25;4940067;29;20027;-91
2023/12/03 01:29:21;;;;;;;62.70;25.60;;;;;;;0.39;100.00;101649.03;4911809;29;20393;-91
2023/12/03 01:31:46;;;;;;;63.92;26.60;;;;;;;0.48;100.00;101653.31;4917627;29;20090;-91
2023/12/03 01:34:12;;;;;;;58.38;24.52;;;;;;;0.42;100.00;101657.03;4936738;29;20452;-90
2023/12/03 01:36:37;;;;;;;63.80;23.52;;;;;;;0.33;100.00;101660.84;4923768;29;20066;-91
2023/12/03 01:39:05;;;;;;;67.65;27.25;;;;;;;0.36;100.00;101651.78;4923569;29;20034;-90
2023/12/03 01:41:31;;;;;;;64.60;26.50;;;;;;;0.33;100.00;101659.97;4902707;29;20032;-92
2023/12/03 01:43:56;;;;;;;62.47;26.83;;;;;;;0.37;100.00;101672.44;4924175;29;20398;-92
2023/12/03 01:46:22;;;;;;;59.67;25.48;;;;;;;0.37;100.00;101667.03;4956131;29;20024;-92
2023/12/03 01:48:49;;;;;;;61.38;26.38;;;;;;;0.35;100.00;101672.47;4924349;29;20035;-91
2023/12/03 01:51:15;;;;;;;71.45;27.67;;;;;;;0.25;100.00;101662.84;4923309;29;20406;-90
2023/12/03 01:53:42;;;;;;;62.13;25.58;;;;;;;0.33;100.00;101682.38;4923345;29;20032;-92
2023/12/03 01:56:10;;;;;;;64.82;25.90;;;;;;;0.34;100.00;101677.88;4939413;29;20064;-92
2023/12/03 01:58:36;;;;;;;66.07;27.73;;;;;;;0.37;100.00;101675.13;4923672;29;20130;-90
2023/12/03 02:01:02;;;;;;;69.05;26.92;;;;;;;0.35;100.00;101671.59;4942294;29;20032;-91
2023/12/03 02:03:30;;;;;;;67.70;27.42;;;;;;;0.35;100.00;101683.22;4921445;29;20051;-90
2023/12/03 02:06:09;;;;;;;63.22;26.00;;;;;;;0.37;100.00;101672.44;4908624;29;20508;-90
2023/12/03 02:08:35;;;;;;;63.97;27.80;;;;;;;0.31;100.00;101673.47;4925973;29;20055;-89
2023/12/03 02:11:02;;;;;;;63.45;26.00;;;;;;;0.34;100.00;101683.25;4925843;29;20557;-91
2023/12/03 02:13:30;;;;;;;64.53;26.80;;;;;;;0.34;100.00;101677.88;4915683;29;20122;-89
2023/12/03 02:15:55;;;;;;;64.00;26.45;;;;;;;0.34;100.00;101691.34;4931220;29;20039;-89
2023/12/03 02:18:21;;;;;;;67.57;27.38;;;;;;;0.31;100.00;101678.84;4910014;29;20031;-92
2023/12/03 02:20:47;;;;;;;69.57;26.50;;;;;;;0.31;100.00;101686.94;4907425;29;20082;-90
2023/12/03 02:23:14;;;;;;;70.57;28.20;;;;;;;0.30;100.00;101686.97;4900009;29;20051;-86
2023/12/03 02:25:43;;;;;;;74.57;27.58;;;;;;;0.29;100.00;101682.50;4918749;29;20508;-84
2023/12/03 02:28:08;;;;;;;66.18;27.90;;;;;;;0.26;100.00;101688.81;4939631;28;20032;-84
2023/12/03 02:30:34;;;;;;;65.25;26.42;;;;;;;0.29;100.00;101688.75;4920953;29;20086;-85
2023/12/03 02:32:59;;;;;;;61.72;26.52;;;;;;;0.35;100.00;101687.75;4917327;29;20474;-86
2023/12/03 02:35:25;;;;;;;75.00;29.08;;;;;;;0.29;100.00;101683.38;4901187;29;20112;-84
2023/12/03 02:37:50;;;;;;;66.72;26.05;;;;;;;0.24;100.00;101689.78;4918325;29;20043;-86
2023/12/03 02:40:16;;;;;;;62.67;25.17;;;;;;;0.25;100.00;101686.19;4902922;29;20032;-84
2023/12/03 02:42:41;;;;;;;65.43;25.25;;;;;;;0.23;100.00;101683.53;4906959;29;20561;-86
2023/12/03 02:45:08;;;;;;;61.25;27.02;;;;;;;0.28;100.00;101695.09;4934801;29;20032;-86
2023/12/03 02:47:34;;;;;;;63.83;25.83;;;;;;;0.25;100.00;101680.81;4920525;29;20126;-84
2023/12/03 02:49:59;;;;;;;68.63;26.30;;;;;;;0.18;100.00;101674.66;4945847;28;20156;-85
2023/12/03 02:52:25;;;;;;;66.57;27.40;;;;;;;0.21;100.00;101677.28;4919197;29;20035;-83
2023/12/03 02:54:50;;;;;;;61.83;25.77;;;;;;;0.22;100.00;101681.75;4913061;29;20031;-85
2023/12/03 02:57:15;;;;;;;70.15;26.73;;;;;;;0.24;100.00;101679.03;4929850;29;20052;-85
2023/12/03 02:59:41;;;;;;;64.65;25.45;;;;;;;0.22;100.00;101687.13;4923749;29;20038;-85
2023/12/03 03:02:06;;;;;;;63.72;26.13;;;;;;;0.18;100.00;101680.03;4899813;29;20490;-85
2023/12/03 03:04:32;;;;;;;70.28;26.75;;;;;;;0.20;100.00;101686.28;4915419;29;20035;-85
2023/12/03 03:06:57;;;;;;;74.28;27.95;;;;;;;0.20;100.00;101689.00;4901845;29;20072;-84
2023/12/03 03:09:22;;;;;;;66.53;26.25;;;;;;;0.17;100.00;101684.53;4915407;29;20051;-84
2023/12/03 03:11:48;;;;;;;64.68;25.55;;;;;;;0.17;100.00;101692.63;4921511;29;20051;-83
2023/12/03 03:14:13;;;;;;;66.45;27.73;;;;;;;0.13;100.00;101690.94;4930052;29;20115;-84
2023/12/03 03:16:39;;;;;;;63.65;26.58;;;;;;;0.13;100.00;101688.25;4953375;28;20143;-82
2023/12/03 03:19:05;;;;;;;65.97;26.90;;;;;;;0.13;100.00;101692.72;4910377;29;20031;-83
2023/12/03 03:21:31;;;;;;;64.90;26.02;;;;;;;0.11;100.00;101689.19;4927799;29;20043;-85
2023/12/03 03:23:56;;;;;;;66.07;26.15;;;;;;;0.09;100.00;101689.22;4925866;29;20039;-83
2023/12/03 03:26:22;;;;;;;68.47;26.50;;;;;;;0.09;100.00;101689.22;4934979;29;20036;-83
2023/12/03 03:28:48;;;;;;;67.75;24.98;;;;;;;0.05;100.00;101686.63;4934744;29;20394;-83
2023/12/03 03:31:13;;;;;;;71.20;25.85;;;;;;;0.12;100.00;101693.66;4937708;29;20055;-83
2023/12/03 03:33:39;;;;;;;72.20;26.40;;;;;;;0.14;100.00;101689.13;4922100;29;20039;-90
2023/12/03 03:36:05;;;;;;;69.68;24.90;;;;;;;0.15;100.00;101694.47;4905915;29;20502;-90
2023/12/03 03:38:30;;;;;;;65.95;26.02;;;;;;;0.18;100.00;101694.41;4890471;29;20067;-91
2023/12/03 03:40:59;;;;;;;61.13;25.38;;;;;;;0.14;100.00;101690.00;4915338;29;20126;-90
2023/12/03 03:43:25;;;;;;;71.53;26.75;;;;;;;0.24;100.00;101701.44;4941321;29;20039;-91
2023/12/03 03:45:51;;;;;;;68.13;25.95;;;;;;;0.26;100.00;101698.72;4919596;29;20032;-90
2023/12/03 03:48:16;;;;;;;61.88;24.00;;;;;;;0.28;100.00;101700.47;4914090;29;20454;-89
2023/12/03 03:50:41;;;;;;;65.63;23.65;;;;;;;0.28;100.00;101702.25;4891528;29;20067;-91
2023/12/03 03:53:07;;;;;;;65.63;24.50;;;;;;;0.30;100.00;101700.44;4910341;29;20106;-91
2023/12/03 03:55:32;;;;;;;62.35;24.67;;;;;;;0.31;100.00;101688.72;4928385;29;20035;-91
2023/12/03 03:57:57;;;;;;;60.10;24.92;;;;;;;0.33;100.00;101701.25;4928270;29;20090;-91
2023/12/03 04:00:23;;;;;;;62.30;24.08;;;;;;;0.34;100.00;101702.13;4902822;29;20486;-91
2023/12/03 04:02:49;;;;;;;61.42;24.73;;;;;;;0.31;100.00;101708.47;4928542;29;20032;-91
2023/12/03 04:05:14;;;;;;;63.00;24.00;;;;;;;0.30;100.00;101698.63;4905067;29;20034;-91
2023/12/03 04:07:40;;;;;;;65.25;24.83;;;;;;;0.34;100.00;101704.81;4929376;29;20043;-90
2023/12/03 04:10:05;;;;;;;72.35;25.33;;;;;;;0.35;100.00;101699.41;4929875;29;20406;-91
2023/12/03 04:12:31;;;;;;;64.15;23.38;;;;;;;0.32;100.00;101699.47;4909938;29;20103;-91
2023/12/03 04:14:57;;;;;;;62.17;23.77;;;;;;;0.36;100.00;101706.56;4913127;29;20064;-91
2023/12/03 04:17:23;;;;;;;60.75;23.63;;;;;;;0.32;100.00;101699.47;4908980;29;20050;-90
2023/12/03 04:19:49;;;;;;;64.38;23.33;;;;;;;0.35;100.00;101703.91;4924000;29;20051;-91
2023/12/03 04:22:14;;;;;;;61.78;23.55;;;;;;;0.36;100.00;101703.88;4922052;29;20110;-91
2023/12/03 04:24:40;;;;;;;62.28;23.80;;;;;;;0.35;100.00;101703.91;4904729;29;20111;-91
2023/12/03 04:27:05;;;;;;;56.60;21.80;;;;;;;0.33;100.00;101698.56;4936228;29;20016;-92
2023/12/03 04:29:31;;;;;;;55.85;21.20;;;;;;;0.32;100.00;101709.34;4915908;29;20043;-92
2023/12/03 04:31:56;;;;;;;58.30;23.15;;;;;;;0.36;100.00;101711.03;4939597;29;20503;-91
2023/12/03 04:34:22;;;;;;;58.13;22.55;;;;;;;0.34;100.00;101710.19;4905400;29;20457;-92
2023/12/03 04:36:48;;;;;;;57.83;23.40;;;;;;;0.34;100.00;101719.19;4921214;29;20321;-92
2023/12/03 04:39:14;;;;;;;63.45;23.08;;;;;;;0.34;100.00;101720.97;4904185;29;20079;-93
2023/12/03 04:41:39;;;;;;;59.17;23.65;;;;;;;0.29;100.00;101725.59;4913052;29;20023;-92
2023/12/03 04:44:06;;;;;;;63.53;21.00;;;;;;;0.27;100.00;101722.03;4906760;29;20514;-86
2023/12/03 04:46:31;;;;;;;63.85;22.33;;;;;;;0.19;100.00;101719.50;4919271;29;20036;-85
2023/12/03 04:48:57;;;;;;;61.10;21.40;;;;;;;0.06;100.00;101710.81;4915821;29;20036;-86
2023/12/03 04:51:22;;;;;;;62.67;23.17;;;;;;;0.11;100.00;101716.97;4921249;29;20110;-86
2023/12/03 04:53:48;;;;;;;56.45;21.90;;;;;;;0.00;100.00;101710.97;4900009;29;20043;-86
2023/12/03 04:56:13;;;;;;;59.47;21.50;;;;;;;-0.03;100.00;101719.09;4921193;29;20068;-86
2023/12/03 04:58:39;;;;;;;47.95;18.17;;;;;;;-0.10;100.00;101720.13;4893906;29;20058;-85
2023/12/03 05:01:04;;;;;;;44.72;17.85;;;;;;;-0.11;100.00;101721.94;4916955;29;20489;-86
2023/12/03 05:03:30;;;;;;;45.28;19.23;;;;;;;-0.15;100.00;101716.66;4900599;29;20090;-85
2023/12/03 05:05:55;;;;;;;60.83;21.05;;;;;;;-0.17;100.00;101723.88;4934688;29;20504;-86
2023/12/03 05:08:20;;;;;;;57.03;21.02;;;;;;;-0.22;100.00;101727.53;4947179;28;20032;-86
2023/12/03 05:10:46;;;;;;;58.55;21.55;;;;;;;-0.25;100.00;101729.41;4906082;29;20190;-85
2023/12/03 05:13:15;;;;;;;53.30;19.67;;;;;;;-0.30;100.00;101731.31;4926905;29;20035;-86
2023/12/03 05:15:40;;;;;;;56.38;21.25;;;;;;;-0.29;100.00;101728.59;4925165;29;20047;-86
2023/12/03 05:18:06;;;;;;;64.28;22.02;;;;;;;-0.38;100.00;101735.06;4922047;29;20043;-85
2023/12/03 05:20:32;;;;;;;67.47;21.90;;;;;;;-0.46;100.00;101731.63;4917128;29;20042;-85
2023/12/03 05:22:57;;;;;;;54.28;20.05;;;;;;;-0.52;100.00;101725.47;4930420;29;20036;-85
2023/12/03 05:25:23;;;;;;;62.95;23.27;;;;;;;-0.56;100.00;101719.25;4931132;29;20051;-85
2023/12/03 05:27:48;;;;;;;60.65;22.95;;;;;;;-0.60;100.00;101726.50;4947455;28;20067;-86
2023/12/03 05:30:14;;;;;;;55.50;21.55;;;;;;;-0.68;100.00;101722.19;4931320;29;20122;-86
2023/12/03 05:32:43;;;;;;;59.72;21.05;;;;;;;-0.65;100.00;101723.00;4927536;29;20032;-86
2023/12/03 05:35:10;;;;;;;64.35;22.67;;;;;;;-0.62;100.00;101733.69;4931054;29;20474;-85
2023/12/03 05:37:36;;;;;;;52.75;21.13;;;;;;;-0.73;100.00;101730.31;4953444;28;20038;-86
2023/12/03 05:40:04;;;;;;;63.63;22.58;;;;;;;-0.73;100.00;101741.06;4956114;28;20027;-85
2023/12/03 05:42:29;;;;;;;46.30;18.58;;;;;;;-0.73;100.00;101737.50;4946897;28;20032;-86
2023/12/03 05:44:55;;;;;;;56.67;20.05;;;;;;;-0.80;100.00;101726.84;4901126;28;20043;-84
2023/12/03 05:47:20;;;;;;;61.45;21.80;;;;;;;-0.81;100.00;101734.94;4950243;28;20397;-85
2023/12/03 05:49:46;;;;;;;55.42;20.75;;;;;;;-0.80;100.00;101736.72;4913816;29;20519;-85
2023/12/03 05:52:11;;;;;;;60.53;20.50;;;;;;;-0.86;100.00;101734.16;4902371;28;20031;-86
2023/12/03 05:54:37;;;;;;;57.28;20.77;;;;;;;-0.85;100.00;101733.22;4917856;29;20019;-86
2023/12/03 05:57:02;;;;;;;52.20;18.98;;;;;;;-0.85;100.00;101746.66;4934508;28;20035;-86
2023/12/03 05:59:28;;;;;;;62.25;20.10;;;;;;;-0.95;100.00;101738.78;4937369;28;20038;-85
2023/12/03 06:01:53;;;;;;;58.65;20.08;;;;;;;-0.93;100.00;101745.00;4901051;28;20560;-86
2023/12/03 06:04:18;;;;;;;62.70;21.50;;;;;;;-0.89;100.00;101742.25;4923237;29;20041;-86
2023/12/03 06:06:44;;;;;;;51.95;19.52;;;;;;;-0.95;100.00;101741.47;4922950;28;20425;-86
2023/12/03 06:09:09;;;;;;;58.05;21.02;;;;;;;-0.94;100.00;101745.03;4937434;29;20499;-86
2023/12/03 06:11:36;;;;;;;63.28;21.65;;;;;;;-0.87;100.00;101756.56;4952582;28;20043;-86
2023/12/03 06:14:05;;;;;;;58.50;20.80;;;;;;;-0.94;100.00;101753.09;4936263;29;20023;-86
2023/12/03 06:16:34;;;;;;;52.60;20.00;;;;;;;-0.97;100.00;101753.13;4924211;28;20035;-86
2023/12/03 06:18:59;;;;;;;57.55;20.23;;;;;;;-1.00;100.00;101762.16;4914600;29;20560;-86
2023/12/03 06:21:24;;;;;;;60.22;21.92;;;;;;;-0.94;100.00;101756.66;4935262;29;20040;-86
2023/12/03 06:23:50;;;;;;;57.38;21.27;;;;;;;-0.89;100.00;101764.63;4932360;29;20094;-85
2023/12/03 06:26:15;;;;;;;65.88;22.63;;;;;;;-0.91;100.00;101768.28;4918587;28;20031;-86
2023/12/03 06:28:41;;;;;;;63.92;20.88;;;;;;;-0.98;100.00;101768.38;4921640;28;20137;-86
2023/12/03 06:31:06;;;;;;;58.95;22.50;;;;;;;-0.98;100.00;101770.19;4906194;28;20098;-85
2023/12/03 06:33:32;;;;;;;66.32;22.60;;;;;;;-0.90;100.00;101770.03;4923893;28;20030;-86
2023/12/03 06:35:58;;;;;;;68.88;22.23;;;;;;;-0.99;100.00;101766.59;4943173;28;20114;-85
2023/12/03 06:38:26;;;;;;;61.85;22.13;;;;;;;-0.92;100.00;101775.44;4950062;28;20553;-86
2023/12/03 06:40:52;;;;;;;61.85;22.15;;;;;;;-0.97;100.00;101777.31;4920270;28;20378;-87
2023/12/03 06:43:18;;;;;;;55.20;20.15;;;;;;;-0.96;100.00;101771.91;4952282;28;20110;-86
2023/12/03 06:45:44;;;;;;;57.70;20.88;;;;;;;-0.96;100.00;101769.22;4946647;28;20027;-86
2023/12/03 06:48:09;;;;;;;64.13;22.20;;;;;;;-0.94;100.00;101775.47;4939354;29;20031;-87
2023/12/03 06:50:34;;;;;;;75.45;21.92;;;;;;;-0.77;100.00;101775.19;4915259;29;20051;-85
2023/12/03 06:53:00;;;;;;;62.47;22.90;;;;;;;-0.78;100.00;101762.66;4905838;28;20487;-86
2023/12/03 06:55:26;;;;;;;60.00;22.17;;;;;;;-0.74;100.00;101771.56;4928343;29;20469;-86
2023/12/03 06:57:52;;;;;;;61.28;21.33;;;;;;;-0.70;100.00;101762.53;4954371;28;20118;-85
2023/12/03 07:00:17;;;;;;;62.67;21.98;;;;;;;-0.71;100.00;101760.75;4937318;28;20035;-86
2023/12/03 07:02:44;;;;;;;54.95;21.38;;;;;;;-0.72;100.00;101767.06;4908360;29;20035;-85
2023/12/03 07:05:10;;;;;;;53.88;20.17;;;;;;;-0.78;100.00;101759.09;4952664;28;20035;-86
2023/12/03 07:07:36;;;;;;;63.38;23.08;;;;;;;-0.73;100.00;101772.47;4934678;29;20032;-86
2023/12/03 07:10:03;;;;;;;65.28;22.83;;;;;;;-0.73;100.00;101769.78;4948782;28;20036;-86
2023/12/03 07:12:29;;;;;;;63.05;22.30;;;;;;;-0.72;100.00;101768.84;4927893;28;20042;-86
2023/12/03 07:14:55;;;;;;;60.60;21.85;;;;;;;-0.72;100.00;101769.75;4936113;29;20027;-86
2023/12/03 07:17:20;;;;;;;55.10;21.00;;;;;;;-0.70;100.00;101775.09;4948135;28;20530;-86
2023/12/03 07:19:46;;;;;;;60.75;22.27;;;;;;;-0.74;100.00;101785.00;4937723;28;20042;-85
2023/12/03 07:22:12;;;;;;;56.40;20.33;;;;;;;-0.81;100.00;101775.28;4952752;28;20099;-86
2023/12/03 07:24:38;;;;;;;59.15;20.80;;;;;;;-0.85;100.00;101787.88;4948887;28;20069;-85
2023/12/03 07:27:04;;;;;;;63.97;21.88;;;;;;;-0.85;100.00;101779.81;4938719;28;20027;-88
2023/12/03 07:29:30;;;;;;;64.20;22.88;;;;;;;-0.88;100.00;101785.25;4958919;28;20473;-88
2023/12/03 07:31:56;;;;;;;59.25;20.67;;;;;;;-0.94;100.00;101788.91;4914328;28;20033;-89
2023/12/03 07:34:21;;;;;;;55.92;20.95;;;;;;;-0.97;100.00;101794.34;4924067;29;20027;-88
2023/12/03 07:36:47;;;;;;;61.05;20.90;;;;;;;-0.98;100.00;101789.00;4923705;29;20066;-88
2023/12/03 07:39:13;;;;;;;59.10;21.10;;;;;;;-1.02;100.00;101792.63;4922977;29;20038;-89
2023/12/03 07:41:39;;;;;;;57.25;20.60;;;;;;;-1.03;100.00;101794.44;4921196;29;20027;-89
2023/12/03 07:44:05;;;;;;;58.03;21.58;;;;;;;-1.05;100.00;101801.66;4927541;29;20187;-88
2023/12/03 07:46:32;;;;;;;55.05;19.15;;;;;;;-1.08;100.00;101800.78;4923901;29;20027;-88
2023/12/03 07:48:58;;;;;;;53.53;20.45;;;;;;;-1.11;100.00;101801.75;4938825;28;20401;-89
2023/12/03 07:51:23;;;;;;;62.05;21.95;;;;;;;-1.08;100.00;101807.06;4907944;29;20023;-89
2023/12/03 07:53:49;;;;;;;54.40;19.42;;;;;;;-1.08;100.00;101806.16;4908491;29;20520;-88
2023/12/03 07:56:14;;;;;;;60.17;20.58;;;;;;;-1.02;100.00;101814.13;4909974;28;20126;-87
2023/12/03 07:58:40;;;;;;;51.10;20.10;;;;;;;-1.08;100.00;101809.75;4910669;28;20027;-87
2023/12/03 08:01:06;;;;;;;56.55;20.42;;;;;;;-1.06;100.00;101809.75;4922111;28;20075;-88
2023/12/03 08:03:31;;;;;;;54.75;20.13;;;;;;;-1.05;100.00;101807.03;4913183;28;20049;-87
2023/12/03 08:05:58;;;;;;;52.05;20.05;;;;;;;-1.04;100.00;101808.78;4943198;29;20027;-89
2023/12/03 08:08:23;;;;;;;62.03;21.80;;;;;;;-1.00;100.00;101804.25;4946053;28;20795;-88
2023/12/03 08:10:49;;;;;;;45.08;17.08;;;;;;;-1.04;100.00;101808.78;4923570;29;20054;-88
2023/12/03 08:13:14;;;;;;;64.30;20.88;;;;;;;-1.02;100.00;101808.75;4939299;29;20393;-90
2023/12/03 08:15:40;;;;;;;64.45;21.15;;;;;;;-1.03;100.00;101805.19;4907301;29;20039;-89
2023/12/03 08:18:05;;;;;;;50.75;20.15;;;;;;;-1.03;100.00;101804.28;4923064;29;20035;-89
2023/12/03 08:20:31;;;;;;;56.10;21.90;;;;;;;-1.02;100.00;101792.63;4928729;29;20100;-87
2023/12/03 08:22:56;;;;;;;59.00;20.40;;;;;;;-0.98;100.00;101806.00;4903967;29;20032;-88
2023/12/03 08:25:22;;;;;;;66.30;19.77;;;;;;;-0.96;100.00;101804.19;4940000;28;20114;-88
2023/12/03 08:27:47;;;;;;;54.35;20.33;;;;;;;-1.03;100.00;101790.84;4933551;29;20126;-86
2023/12/03 08:30:13;;;;;;;59.42;22.75;;;;;;;-0.95;100.00;101807.78;4914268;28;20039;-87
2023/12/03 08:32:39;;;;;;;60.70;21.15;;;;;;;-0.97;100.00;101807.78;4908064;28;20066;-86
2023/12/03 08:35:04;;;;;;;60.85;20.55;;;;;;;-0.95;100.00;101813.16;4918878;28;20027;-85
2023/12/03 08:37:30;;;;;;;57.50;20.90;;;;;;;-0.96;100.00;101811.38;4917312;28;20046;-87
2023/12/03 08:39:55;;;;;;;49.70;19.70;;;;;;;-0.85;100.00;101822.84;4918436;29;20031;-88
2023/12/03 08:42:21;;;;;;;53.70;20.05;;;;;;;-0.81;100.00;101821.84;4923669;29;20031;-90
2023/12/03 08:44:46;;;;;;;58.42;20.13;;;;;;;-0.72;100.00;101826.22;4906791;29;20496;-88
2023/12/03 08:47:13;;;;;;;49.63;19.88;;;;;;;-0.66;100.00;101826.09;4931406;28;20050;-87
2023/12/03 08:49:39;;;;;;;49.67;18.83;;;;;;;-0.63;100.00;101830.53;4933501;28;20042;-90
2023/12/03 08:52:07;;;;;;;55.15;21.38;;;;;;;-0.54;100.00;101829.50;4947172;29;20039;-90
2023/12/03 08:54:33;;;;;;;52.58;18.65;;;;;;;-0.45;100.00;101838.28;4938158;29;20086;-90
2023/12/03 08:56:59;;;;;;;58.13;20.88;;;;;;;-0.42;100.00;101835.53;4906233;29;20601;-89
2023/12/03 08:59:25;;;;;;;48.33;18.52;;;;;;;-0.44;100.00;101847.28;4913109;29;20035;-88
2023/12/03 09:01:50;;;;;;;60.00;19.48;;;;;;;-0.41;100.00;101837.34;4906471;29;20449;-90
2023/12/03 09:04:16;;;;;;;50.10;19.15;;;;;;;-0.33;100.00;101844.38;4937040;29;20481;-89
2023/12/03 09:06:41;;;;;;;49.88;17.98;;;;;;;-0.34;100.00;101846.19;4920909;28;20106;-88
2023/12/03 09:09:07;;;;;;;53.85;20.35;;;;;;;-0.22;100.00;101848.63;4903090;29;20515;-88
2023/12/03 09:11:32;;;;;;;46.83;19.00;;;;;;;-0.25;100.00;101846.00;4920014;29;20032;-89
2023/12/03 09:13:58;;;;;;;54.15;18.48;;;;;;;-0.19;100.00;101850.41;4905254;28;20039;-88
2023/12/03 09:16:23;;;;;;;48.83;18.42;;;;;;;-0.17;100.00;101840.47;4919528;29;20438;-88
2023/12/03 09:18:50;;;;;;;50.03;19.58;;;;;;;-0.22;100.00;101828.91;4923720;29;20050;-90
2023/12/03 09:21:16;;;;;;;46.45;18.98;;;;;;;-0.06;100.00;101842.97;4907874;28;20031;-89
2023/12/03 09:23:43;;;;;;;52.38;18.95;;;;;;;-0.04;100.00;101841.16;4904342;29;20028;-92
2023/12/03 09:26:08;;;;;;;48.05;17.40;;;;;;;-0.01;100.00;101841.97;4922821;29;20024;-93
2023/12/03 09:28:34;;;;;;;46.05;17.30;;;;;;;0.01;100.00;101839.25;4902211;29;20031;-91
2023/12/03 09:31:00;;;;;;;45.22;17.63;;;;;;;0.07;100.00;101849.91;4944956;28;20073;-96
2023/12/03 09:33:27;;;;;;;46.50;17.48;;;;;;;0.16;100.00;101849.72;4911686;29;20043;-92
2023/12/03 09:35:53;;;;;;;48.15;18.83;;;;;;;0.29;100.00;101847.66;4903267;29;20459;-91
2023/12/03 09:38:19;;;;;;;45.97;17.70;;;;;;;0.34;100.00;101853.88;4905171;29;20123;-89
2023/12/03 09:40:47;;;;;;;44.80;18.25;;;;;;;0.31;100.00;101843.16;4924447;28;20054;-89
2023/12/03 09:43:18;;;;;;;43.30;17.55;;;;;;;0.26;100.00;101839.63;4953852;28;20078;-90
2023/12/03 09:45:46;;;;;;;47.85;19.15;;;;;;;0.28;100.00;101839.59;4950145;28;20114;-91
2023/12/03 09:48:12;;;;;;;45.10;17.35;;;;;;;0.42;100.00;101852.81;4941340;29;20089;-90
2023/12/03 09:50:41;;;;;;;44.85;19.10;;;;;;;0.42;100.00;101844.72;5261355;23;20051;-90
2023/12/03 09:53:10;;;;;;;44.53;18.67;;;;;;;0.53;100.00;101848.97;4942512;28;20177;-90
2023/12/03 09:55:39;;;;;;;41.85;17.23;;;;;;;0.48;100.00;101840.09;4951336;28;20476;-89
2023/12/03 09:58:05;;;;;;;45.63;18.15;;;;;;;0.48;100.00;101841.91;4952010;28;20399;-88
2023/12/03 10:00:31;;;;;;;43.47;17.55;;;;;;;0.60;100.00;101849.72;4942758;28;20030;-89
2023/12/03 10:02:57;;;;;;;48.83;16.77;;;;;;;0.53;100.00;101840.88;4942093;28;20361;-89
2023/12/03 10:05:22;;;;;;;43.92;17.70;;;;;;;0.61;100.00;101843.41;4955602;28;20062;-85
2023/12/03 10:07:51;;;;;;;39.40;17.55;;;;;;;0.71;100.00;101844.09;4924077;28;20041;-90
2023/12/03 10:10:22;;;;;;;42.10;17.60;;;;;;;0.70;100.00;101839.63;4954915;28;20031;-93
2023/12/03 10:12:49;;;;;;;39.75;15.80;;;;;;;0.74;100.00;101833.25;4927101;28;20373;-91
2023/12/03 10:15:15;;;;;;;44.85;17.90;;;;;;;0.83;100.00;101837.53;4933398;28;20130;-91
2023/12/03 10:17:41;;;;;;;39.90;16.05;;;;;;;0.85;100.00;101833.91;4929245;28;20793;-91
2023/12/03 10:20:21;;;;;;;45.17;17.27;;;;;;;0.70;100.00;101821.63;4925602;28;20031;-91
2023/12/03 10:22:47;;;;;;;42.22;16.67;;;;;;;0.76;100.00;101822.44;4945254;29;20058;-91
2023/12/03 10:25:35;;;;;;;43.75;16.33;;;;;;;0.71;100.00;101817.16;4940747;28;20438;-90
2023/12/03 10:28:06;;;;;;;39.40;16.35;;;;;;;0.70;100.00;101809.97;4941966;28;20162;-90
2023/12/03 10:30:32;;;;;;;41.55;15.93;;;;;;;0.73;100.00;101815.31;4971911;28;20019;-90
2023/12/03 10:32:59;;;;;;;42.22;15.30;;;;;;;0.75;100.00;101807.19;4941947;28;20030;-90
2023/12/03 10:35:35;;;;;;;48.05;17.65;;;;;;;0.86;100.00;101815.91;4936258;28;20031;-91
2023/12/03 10:38:01;;;;;;;43.20;14.20;;;;;;;0.79;100.00;101812.47;4955496;28;20039;-91
2023/12/03 10:40:26;;;;;;;36.90;14.85;;;;;;;0.73;100.00;101807.22;4953274;28;20484;-90
2023/12/03 10:42:52;;;;;;;36.08;15.65;;;;;;;0.76;100.00;101806.28;4915886;28;20045;-91
2023/12/03 10:45:19;;;;;;;38.95;15.43;;;;;;;0.76;100.00;101801.75;4940948;28;20042;-91
2023/12/03 10:47:45;;;;;;;34.17;14.23;;;;;;;0.73;100.00;101802.69;4936360;28;20045;-90
2023/12/03 10:50:12;;;;;;;44.00;16.65;;;;;;;0.76;100.00;101796.38;4928342;28;20150;-89
2023/12/03 10:52:41;;;;;;;38.20;16.02;;;;;;;0.80;100.00;101797.19;4919715;28;20124;-90
2023/12/03 10:55:08;;;;;;;38.42;15.98;;;;;;;0.81;100.00;101797.16;4950717;28;20120;-90
2023/12/03 10:57:43;;;;;;;38.20;15.73;;;;;;;0.96;100.00;101797.72;4940458;28;20050;-90
2023/12/03 11:00:12;;;;;;;41.13;16.08;;;;;;;0.99;100.00;101792.25;4940880;28;20042;-90
2023/12/03 11:02:59;;;;;;;36.50;15.35;;;;;;;0.98;100.00;101790.47;4933841;28;20089;-90